weather.gov     
National Weather Service

Terminal Aerodrome Forecast
NWS Homepage
This page is being discontinued on March 12, 2014.
The same data is available at this site. Please update your bookmarks.
Thank you, and we apologize for the inconvenience.
Please send an email to SR-SRH.Webmaster@noaa.gov with any concerns.


Current Version
Previous Version:    01  02  03  04  05  06  07  08  09  10  11  12  13  14  15  16  17  18  19  20  21  22  23  24  25  26  27  28  29  30  
   31  32  33  34  35  36  37  38  39  40  41  42  43  44  45  46  47  48  49  50  51  52  53  54  55  56  57  58  59  60  
[Printable]
975
FTUS41 KCTP 290715 AAC
TAFBFD
TAF AMD
KBFD 290715Z 2907/3006 VRB02KT 4SM -SN OVC035
      TEMPO 2907/2911 2SM -SN OVC025
     FM291200 16005KT P6SM VCSH OVC050
     FM291500 17008KT P6SM BKN100
     FM300100 18008KT P6SM OVC020 WS015/20035KT
     FM300500 18006KT P6SM OVC008 WS015/21040KT=


975
FTUS41 KCTP 290715 AAC
TAFBFD
TAF AMD
KBFD 290715Z 2907/3006 VRB02KT 4SM -SN OVC035
      TEMPO 2907/2911 2SM -SN OVC025
     FM291200 16005KT P6SM VCSH OVC050
     FM291500 17008KT P6SM BKN100
     FM300100 18008KT P6SM OVC020 WS015/20035KT
     FM300500 18006KT P6SM OVC008 WS015/21040KT=




U.S. Dept. of Commerce
NOAA National Weather Service
1325 East West Highway
Silver Spring, MD 20910
E-mail: w-nws.webmaster@noaa.gov
Page last modified: May 16, 2007
NATIONAL WEATHER SERVICE: for Safety, for Work, for Fun - FOR LIFE